createdAt,value
2022-10-31T00:00:27.869Z,13.90
2022-10-31T00:03:14.245Z,12.80
2022-10-31T00:05:42.889Z,12.90
2022-10-31T00:08:09.201Z,12.90
2022-10-31T00:10:38.431Z,11.60
2022-10-31T00:13:04.861Z,12.50
2022-10-31T00:15:33.816Z,12.40
2022-10-31T00:18:00.424Z,15.50
2022-10-31T00:20:26.908Z,13.80
2022-10-31T00:22:53.373Z,13.40
2022-10-31T00:25:20.848Z,12.00
2022-10-31T00:27:47.144Z,13.40
2022-10-31T00:30:13.733Z,12.70
2022-10-31T00:32:40.896Z,11.40
2022-10-31T00:35:07.489Z,11.40
2022-10-31T00:37:33.704Z,14.30
2022-10-31T00:40:00.035Z,13.10
2022-10-31T00:42:26.327Z,12.60
2022-10-31T00:44:52.701Z,12.30
2022-10-31T00:47:20.014Z,10.90
2022-10-31T00:49:46.480Z,11.20
2022-10-31T00:52:12.821Z,11.50
2022-10-31T00:54:39.184Z,10.70
2022-10-31T00:57:05.421Z,11.00
2022-10-31T00:59:31.649Z,12.40
2022-10-31T01:01:58.010Z,12.20
2022-10-31T01:04:24.678Z,12.00
2022-10-31T01:06:50.961Z,10.60
2022-10-31T01:09:17.240Z,10.90
2022-10-31T01:11:43.575Z,10.00
2022-10-31T01:14:10.251Z,9.90
2022-10-31T01:16:36.601Z,9.40
2022-10-31T01:19:03.310Z,9.40
2022-10-31T01:21:30.031Z,11.30
2022-10-31T01:26:28.495Z,9.80
2022-10-31T01:29:09.286Z,10.60
2022-10-31T01:31:38.705Z,10.80
2022-10-31T01:34:06.863Z,10.40
2022-10-31T01:36:35.657Z,10.10
2022-10-31T01:39:07.895Z,10.10
2022-10-31T01:41:38.192Z,10.80
2022-10-31T01:44:13.761Z,10.50
2022-10-31T01:46:42.931Z,11.20
2022-10-31T01:49:18.914Z,10.00
2022-10-31T01:51:56.698Z,10.80
2022-10-31T01:54:27.165Z,9.90
2022-10-31T01:56:56.699Z,9.30
2022-10-31T01:59:25.735Z,9.10
2022-10-31T02:01:52.893Z,8.70
2022-10-31T02:04:21.996Z,9.40
2022-10-31T02:06:55.309Z,10.60
2022-10-31T02:09:24.353Z,11.00
2022-10-31T02:11:57.550Z,10.70
2022-10-31T02:14:29.729Z,10.90
2022-10-31T02:16:56.564Z,10.20
2022-10-31T02:20:09.661Z,8.20
2022-10-31T02:23:23.337Z,12.80
2022-10-31T02:26:08.031Z,11.70
2022-10-31T02:28:34.375Z,12.30
2022-10-31T02:31:12.770Z,10.70
2022-10-31T02:33:52.592Z,12.20
2022-10-31T02:36:28.896Z,11.80
2022-10-31T02:39:02.455Z,10.50
2022-10-31T02:41:52.906Z,11.70
2022-10-31T02:44:29.822Z,12.70
2022-10-31T02:47:14.643Z,11.60
2022-10-31T02:49:54.461Z,10.00
2022-10-31T02:52:24.012Z,8.90
2022-10-31T02:54:52.302Z,9.60
2022-10-31T02:57:26.110Z,10.20
2022-10-31T03:00:00.693Z,8.70
2022-10-31T03:02:33.376Z,11.30
2022-10-31T03:05:18.012Z,11.90
2022-10-31T03:08:05.076Z,10.60
2022-10-31T03:11:06.846Z,10.40
2022-10-31T03:13:41.404Z,9.00
2022-10-31T03:16:07.839Z,9.90
2022-10-31T03:18:40.323Z,8.30
2022-10-31T03:21:37.836Z,10.50
2022-10-31T03:24:07.030Z,12.70
2022-10-31T03:26:38.680Z,12.20
2022-10-31T03:29:11.401Z,10.40
2022-10-31T03:31:57.567Z,9.80
2022-10-31T03:34:24.280Z,8.30
2022-10-31T03:36:55.336Z,9.40
2022-10-31T03:39:23.762Z,8.30
2022-10-31T03:41:56.697Z,10.80
2022-10-31T03:44:25.625Z,10.50
2022-10-31T03:46:58.118Z,9.80
2022-10-31T03:49:24.733Z,8.00
2022-10-31T03:51:56.789Z,6.50
2022-10-31T03:54:30.461Z,8.80
2022-10-31T03:57:05.784Z,7.40
2022-10-31T04:00:02.096Z,6.30
2022-10-31T04:02:33.161Z,8.50
2022-10-31T04:05:01.698Z,9.00
2022-10-31T04:10:04.766Z,10.10
2022-10-31T04:12:33.111Z,8.00
2022-10-31T04:15:30.629Z,6.10
2022-10-31T04:17:59.974Z,7.00
2022-10-31T04:20:35.609Z,7.30
2022-10-31T04:23:03.106Z,6.70
2022-10-31T04:25:30.766Z,10.00
2022-10-31T04:27:58.216Z,8.90
2022-10-31T04:30:24.797Z,8.30
2022-10-31T04:32:51.057Z,7.00
2022-10-31T04:35:17.690Z,7.50
2022-10-31T04:37:44.041Z,6.40
2022-10-31T04:40:10.994Z,12.30
2022-10-31T04:42:55.154Z,14.00
2022-10-31T04:45:21.783Z,10.20
2022-10-31T04:47:50.751Z,7.60
2022-10-31T04:50:17.178Z,6.50
2022-10-31T04:52:45.758Z,6.10
2022-10-31T04:55:14.466Z,6.80
2022-10-31T04:57:59.796Z,5.60
2022-10-31T05:00:26.868Z,5.80
2022-10-31T05:02:55.702Z,7.50
2022-10-31T05:05:29.351Z,7.80
2022-10-31T05:07:55.766Z,6.70
2022-10-31T05:10:27.695Z,7.10
2022-10-31T05:12:57.147Z,7.70
2022-10-31T05:15:46.837Z,6.90
2022-10-31T05:18:42.253Z,5.80
2022-10-31T05:21:20.349Z,6.20
2022-10-31T05:23:55.281Z,7.40
2022-10-31T05:26:23.657Z,8.00
2022-10-31T05:28:50.941Z,6.90
2022-10-31T05:31:17.275Z,6.60
2022-10-31T05:33:43.606Z,5.30
2022-10-31T05:36:28.137Z,5.40
2022-10-31T05:38:59.296Z,4.40
2022-10-31T05:41:33.655Z,7.30
2022-10-31T05:44:10.002Z,8.20
2022-10-31T05:46:48.297Z,6.60
2022-10-31T05:49:43.190Z,6.60
2022-10-31T05:52:25.534Z,6.70
2022-10-31T05:54:58.197Z,6.00
2022-10-31T05:57:24.777Z,4.80
2022-10-31T05:59:55.073Z,4.40
2022-10-31T06:05:10.834Z,3.90
2022-10-31T06:07:37.154Z,6.80
2022-10-31T06:10:05.847Z,7.00
2022-10-31T06:12:32.411Z,6.40
2022-10-31T06:15:11.716Z,7.30
2022-10-31T06:17:37.956Z,7.60
2022-10-31T06:20:21.764Z,5.50
2022-10-31T06:22:55.910Z,5.10
2022-10-31T06:25:22.629Z,5.30
2022-10-31T06:27:49.676Z,6.80
2022-10-31T06:30:16.285Z,3.90
2022-10-31T06:32:44.927Z,7.00
2022-10-31T06:35:11.367Z,5.70
2022-10-31T06:37:39.542Z,4.80
2022-10-31T06:40:24.204Z,3.70
2022-10-31T06:43:07.762Z,4.50
2022-10-31T06:45:34.757Z,4.50
2022-10-31T06:48:17.664Z,6.30
2022-10-31T06:51:20.047Z,7.40
2022-10-31T06:53:47.241Z,4.20
2022-10-31T06:56:13.826Z,6.90
2022-10-31T06:58:44.592Z,5.40
2022-10-31T07:01:11.285Z,5.80
2022-10-31T07:03:37.571Z,4.40
2022-10-31T07:06:04.014Z,4.70
2022-10-31T07:08:32.089Z,5.00
2022-10-31T07:10:58.487Z,5.40
2022-10-31T07:13:25.932Z,5.30
2022-10-31T07:16:01.470Z,5.10
2022-10-31T07:18:28.235Z,5.20
2022-10-31T07:20:54.492Z,5.10
2022-10-31T07:23:21.183Z,5.20
2022-10-31T07:25:59.441Z,5.90
2022-10-31T07:28:31.733Z,6.20
2022-10-31T07:30:59.225Z,4.50
2022-10-31T07:33:26.620Z,6.80
2022-10-31T07:36:18.875Z,5.30
2022-10-31T07:38:45.271Z,5.60
2022-10-31T07:41:11.580Z,5.00
2022-10-31T07:43:41.500Z,6.20
2022-10-31T07:46:16.833Z,6.30
2022-10-31T07:49:01.972Z,5.60
2022-10-31T07:51:47.358Z,6.10
2022-10-31T07:54:45.888Z,7.70
2022-10-31T07:57:12.164Z,7.20
2022-10-31T07:59:38.604Z,7.50
2022-10-31T08:02:05.423Z,8.40
2022-10-31T08:04:31.768Z,8.80
2022-10-31T08:07:17.396Z,7.70
2022-10-31T08:09:48.347Z,8.00
2022-10-31T08:12:19.828Z,6.60
2022-10-31T08:14:46.494Z,7.20
2022-10-31T08:17:13.646Z,7.70
2022-10-31T08:19:45.789Z,6.40
2022-10-31T08:22:13.854Z,8.80
2022-10-31T08:27:06.332Z,7.70
2022-10-31T08:29:32.662Z,6.80
2022-10-31T08:31:59.241Z,7.30
2022-10-31T08:34:43.964Z,8.20
2022-10-31T08:37:28.623Z,8.00
2022-10-31T08:39:55.404Z,4.80
2022-10-31T08:42:21.917Z,6.60
2022-10-31T08:44:48.415Z,7.70
2022-10-31T08:47:14.815Z,8.40
2022-10-31T08:49:41.340Z,6.80
2022-10-31T08:52:12.035Z,8.50
2022-10-31T08:54:40.825Z,10.90
2022-10-31T08:57:33.481Z,10.10
2022-10-31T08:59:59.775Z,9.40
2022-10-31T09:02:46.232Z,10.20
2022-10-31T09:05:13.592Z,13.00
2022-10-31T09:07:39.863Z,10.30
2022-10-31T09:10:06.589Z,12.40
2022-10-31T09:12:35.100Z,11.60
2022-10-31T09:15:19.972Z,14.20
2022-10-31T09:17:55.936Z,11.10
2022-10-31T09:20:39.830Z,13.20
2022-10-31T09:23:08.897Z,11.30
2022-10-31T09:25:38.374Z,8.00
2022-10-31T09:28:32.812Z,12.60
2022-10-31T09:31:04.245Z,11.80
2022-10-31T09:33:48.924Z,9.80
2022-10-31T09:36:36.638Z,7.20
2022-10-31T09:39:03.697Z,11.50
2022-10-31T09:42:01.918Z,11.00
2022-10-31T09:44:44.751Z,11.10
2022-10-31T09:47:27.185Z,14.40
2022-10-31T09:50:48.576Z,14.00
2022-10-31T09:53:53.201Z,15.30
2022-10-31T09:56:23.148Z,12.20
2022-10-31T09:58:58.498Z,13.10
2022-10-31T10:02:06.672Z,15.40
2022-10-31T10:04:59.815Z,11.80
2022-10-31T10:07:33.277Z,13.30
2022-10-31T10:10:50.904Z,12.50
2022-10-31T10:13:32.130Z,12.50
2022-10-31T10:16:26.270Z,14.20
2022-10-31T10:19:14.560Z,13.40
2022-10-31T10:21:55.916Z,13.50
2022-10-31T10:24:33.986Z,13.00
2022-10-31T10:27:07.151Z,12.80
2022-10-31T10:29:43.293Z,14.00
2022-10-31T10:32:22.786Z,14.80
2022-10-31T10:34:55.374Z,14.70
2022-10-31T10:37:31.129Z,14.00
2022-10-31T10:40:22.723Z,15.40
2022-10-31T10:43:24.142Z,9.40
2022-10-31T10:46:18.478Z,13.50
2022-10-31T10:48:56.068Z,17.10
2022-10-31T10:52:19.249Z,15.10
2022-10-31T10:54:42.076Z,13.80
2022-10-31T10:57:23.060Z,11.80
2022-10-31T10:59:51.477Z,14.00
2022-10-31T11:02:31.322Z,16.40
2022-10-31T11:05:00.777Z,7.90
2022-10-31T11:07:38.225Z,16.00
2022-10-31T11:10:13.372Z,13.00
2022-10-31T11:12:40.440Z,13.50
2022-10-31T11:15:27.887Z,12.70
2022-10-31T11:17:56.375Z,13.90
2022-10-31T11:20:36.266Z,15.50
2022-10-31T11:23:21.678Z,15.50
2022-10-31T11:25:50.820Z,12.80
2022-10-31T11:28:17.376Z,13.70
2022-10-31T11:30:47.538Z,14.70
2022-10-31T11:33:18.824Z,13.20
2022-10-31T11:35:45.310Z,12.40
2022-10-31T11:38:18.556Z,12.50
2022-10-31T11:41:00.719Z,16.70
2022-10-31T11:43:27.820Z,15.20
2022-10-31T11:45:54.387Z,13.90
2022-10-31T11:48:24.388Z,13.40
2022-10-31T11:50:54.820Z,14.00
2022-10-31T11:53:28.548Z,16.40
2022-10-31T11:56:15.176Z,14.90
2022-10-31T11:58:42.036Z,15.10
2022-10-31T12:01:24.730Z,12.50
2022-10-31T12:04:14.044Z,15.50
2022-10-31T12:06:43.156Z,13.30
2022-10-31T12:09:33.180Z,12.20
2022-10-31T12:12:27.034Z,12.10
2022-10-31T12:15:27.955Z,13.40
2022-10-31T12:18:12.692Z,15.00
2022-10-31T12:21:06.826Z,8.70
2022-10-31T12:23:54.626Z,12.10
2022-10-31T12:26:42.419Z,16.20
2022-10-31T12:29:17.497Z,17.50
2022-10-31T12:32:04.444Z,16.20
2022-10-31T12:34:52.463Z,14.00
2022-10-31T12:37:37.633Z,10.60
2022-10-31T12:40:12.672Z,16.10
2022-10-31T12:43:14.503Z,13.50
2022-10-31T12:45:57.940Z,13.00
2022-10-31T12:48:27.191Z,16.50
2022-10-31T12:53:54.420Z,14.30
2022-10-31T12:56:45.219Z,17.00
2022-10-31T12:59:34.228Z,14.90
2022-10-31T13:02:36.040Z,16.70
2022-10-31T13:05:06.332Z,15.10
2022-10-31T13:07:47.943Z,18.70
2022-10-31T13:12:54.218Z,19.70
2022-10-31T13:15:25.522Z,19.40
2022-10-31T13:18:23.353Z,20.10
2022-10-31T13:20:54.790Z,17.90
2022-10-31T13:23:49.918Z,18.30
2022-10-31T13:29:24.716Z,20.00
2022-10-31T13:31:55.102Z,20.10
2022-10-31T13:34:34.848Z,21.00
2022-10-31T13:37:31.809Z,19.90
2022-10-31T13:40:39.282Z,19.50
2022-10-31T13:43:31.555Z,17.90
2022-10-31T13:45:59.180Z,14.30
2022-10-31T13:48:26.759Z,17.80
2022-10-31T13:51:00.836Z,17.80
2022-10-31T13:53:57.399Z,25.90
2022-10-31T13:56:31.569Z,19.10
2022-10-31T13:59:02.429Z,20.50
2022-10-31T14:01:32.376Z,20.00
2022-10-31T14:04:14.090Z,20.70
2022-10-31T14:06:52.249Z,15.90
2022-10-31T14:09:24.623Z,19.30
2022-10-31T14:11:53.205Z,24.50
2022-10-31T14:14:24.502Z,19.90
2022-10-31T14:16:58.659Z,14.50
2022-10-31T14:19:27.303Z,14.60
2022-10-31T14:21:55.014Z,16.00
2022-10-31T14:24:25.698Z,13.60
2022-10-31T14:26:58.538Z,13.60
2022-10-31T14:29:35.561Z,13.70
2022-10-31T14:32:28.456Z,18.30
2022-10-31T14:34:58.547Z,16.90
2022-10-31T14:37:35.045Z,15.50
2022-10-31T14:40:17.687Z,16.30
2022-10-31T14:42:57.171Z,18.20
2022-10-31T14:45:46.952Z,16.90
2022-10-31T14:48:36.289Z,17.30
2022-10-31T14:51:29.673Z,18.40
2022-10-31T14:53:58.493Z,18.90
2022-10-31T14:56:29.816Z,19.50
2022-10-31T14:59:02.138Z,17.20
2022-10-31T15:01:34.472Z,18.60
2022-10-31T15:07:21.680Z,16.20
2022-10-31T15:10:04.092Z,16.70
2022-10-31T15:12:34.553Z,13.90
2022-10-31T15:15:18.325Z,17.50
2022-10-31T15:17:53.994Z,15.20
2022-10-31T15:20:25.355Z,16.10
2022-10-31T15:22:55.692Z,17.80
2022-10-31T15:25:26.629Z,15.90
2022-10-31T15:27:54.416Z,16.40
2022-10-31T15:30:27.988Z,14.80
2022-10-31T15:32:58.615Z,15.10
2022-10-31T15:35:30.228Z,17.40
2022-10-31T15:38:00.548Z,13.70
2022-10-31T15:40:29.228Z,13.90
2022-10-31T15:43:02.882Z,15.40
2022-10-31T15:45:31.644Z,13.20
2022-10-31T15:48:12.530Z,14.20
2022-10-31T15:50:46.356Z,13.50
2022-10-31T15:53:36.207Z,14.10
2022-10-31T15:56:08.542Z,13.80
2022-10-31T15:58:45.060Z,18.10
2022-10-31T16:01:28.394Z,17.70
2022-10-31T16:04:02.208Z,17.80
2022-10-31T16:06:35.450Z,15.30
2022-10-31T16:09:05.409Z,14.30
2022-10-31T16:11:38.860Z,14.30
2022-10-31T16:14:07.124Z,14.00
2022-10-31T16:16:43.072Z,15.00
2022-10-31T16:19:22.452Z,14.00
2022-10-31T16:21:54.654Z,9.80
2022-10-31T16:24:32.781Z,11.50
2022-10-31T16:27:16.436Z,9.20
2022-10-31T16:29:46.921Z,9.70
2022-10-31T16:32:31.868Z,12.50
2022-10-31T16:35:00.392Z,12.70
2022-10-31T16:37:28.072Z,12.70
2022-10-31T16:39:55.726Z,14.30
2022-10-31T16:42:23.704Z,13.20
2022-10-31T16:44:51.438Z,11.80
2022-10-31T16:47:21.161Z,11.30
2022-10-31T16:49:51.111Z,11.90
2022-10-31T16:52:19.181Z,13.00
2022-10-31T16:54:46.983Z,12.80
2022-10-31T16:57:18.503Z,12.40
2022-10-31T16:59:52.296Z,12.70
2022-10-31T17:02:20.324Z,12.50
2022-10-31T17:04:50.809Z,12.40
2022-10-31T17:07:21.675Z,12.10
2022-10-31T17:09:49.271Z,11.90
2022-10-31T17:12:21.471Z,12.90
2022-10-31T17:14:52.371Z,13.60
2022-10-31T17:17:20.118Z,12.40
2022-10-31T17:19:47.823Z,12.70
2022-10-31T17:22:15.621Z,13.10
2022-10-31T17:24:43.777Z,14.70
2022-10-31T17:27:11.631Z,15.60
2022-10-31T17:29:39.392Z,13.80
2022-10-31T17:32:07.018Z,12.20
2022-10-31T17:34:34.677Z,14.20
2022-10-31T17:37:02.320Z,15.00
2022-10-31T17:39:30.026Z,15.60
2022-10-31T17:41:57.800Z,14.00
2022-10-31T17:44:25.475Z,13.50
2022-10-31T17:46:53.157Z,14.30
2022-10-31T17:49:21.783Z,13.00
2022-10-31T17:51:49.512Z,11.90
2022-10-31T17:54:18.932Z,11.40
2022-10-31T17:56:46.711Z,12.50
2022-10-31T17:59:14.562Z,12.30
2022-10-31T18:01:44.452Z,11.70
2022-10-31T18:04:12.411Z,14.00
2022-10-31T18:06:40.176Z,14.40
2022-10-31T18:09:07.994Z,15.00
2022-10-31T18:11:35.706Z,13.60
2022-10-31T18:14:03.536Z,18.50
2022-10-31T18:16:31.360Z,19.90
2022-10-31T18:19:01.935Z,14.50
2022-10-31T18:21:29.872Z,15.30
2022-10-31T18:23:59.555Z,11.20
2022-10-31T18:26:28.333Z,14.10
2022-10-31T18:28:56.090Z,13.80
2022-10-31T18:31:24.728Z,14.30
2022-10-31T18:33:54.703Z,16.40
2022-10-31T18:36:23.331Z,13.40
2022-10-31T18:38:51.078Z,15.80
2022-10-31T18:41:19.219Z,13.50
2022-10-31T18:43:48.175Z,12.70
2022-10-31T18:46:17.743Z,13.40
2022-10-31T18:48:46.466Z,11.40
2022-10-31T18:51:14.822Z,11.70
2022-10-31T18:53:42.566Z,12.80
2022-10-31T18:56:11.368Z,12.80
2022-10-31T18:58:39.221Z,12.30
2022-10-31T19:01:08.888Z,9.00
2022-10-31T19:03:37.370Z,10.40
2022-10-31T19:06:06.188Z,12.00
2022-10-31T19:08:34.336Z,11.40
2022-10-31T19:11:12.898Z,10.60
2022-10-31T19:13:41.849Z,12.30
2022-10-31T19:16:15.235Z,11.20
2022-10-31T19:18:44.017Z,10.40
2022-10-31T19:21:16.687Z,12.40
2022-10-31T19:23:45.375Z,12.10
2022-10-31T19:26:14.204Z,11.70
2022-10-31T19:28:42.046Z,13.80
2022-10-31T19:31:10.888Z,14.90
2022-10-31T19:33:39.155Z,12.00
2022-10-31T19:36:12.159Z,13.60
2022-10-31T19:38:42.322Z,13.60
2022-10-31T19:41:13.311Z,14.40
2022-10-31T19:43:41.771Z,14.70
2022-10-31T19:46:22.125Z,15.10
2022-10-31T19:48:55.594Z,12.90
2022-10-31T19:51:23.438Z,13.40
2022-10-31T19:53:52.263Z,13.70
2022-10-31T19:56:22.784Z,13.40
2022-10-31T19:58:50.430Z,14.00
2022-10-31T20:01:23.423Z,13.50
2022-10-31T20:03:51.752Z,12.40
2022-10-31T20:06:30.717Z,12.70
2022-10-31T20:08:59.641Z,13.90
2022-10-31T20:11:28.672Z,11.60
2022-10-31T20:13:58.284Z,11.80
2022-10-31T20:16:27.350Z,11.50
2022-10-31T20:18:56.143Z,12.00
2022-10-31T20:21:26.450Z,11.00
2022-10-31T20:24:02.320Z,10.90
2022-10-31T20:26:31.625Z,11.20
2022-10-31T20:29:01.060Z,12.70
2022-10-31T20:31:32.066Z,13.00
2022-10-31T20:34:00.151Z,11.80
2022-10-31T20:36:29.577Z,10.60
2022-10-31T20:38:58.572Z,10.50
2022-10-31T20:41:26.879Z,12.30
2022-10-31T20:43:54.790Z,11.70
2022-10-31T20:46:25.544Z,12.60
2022-10-31T20:48:54.199Z,11.60
2022-10-31T20:51:25.066Z,11.60
2022-10-31T20:53:54.028Z,11.30
2022-10-31T20:56:23.456Z,9.80
2022-10-31T20:58:52.035Z,11.00
2022-10-31T21:01:21.991Z,10.80
2022-10-31T21:03:50.711Z,9.80
2022-10-31T21:06:20.186Z,10.50
2022-10-31T21:08:47.829Z,9.10
2022-10-31T21:11:18.123Z,9.10
2022-10-31T21:13:47.667Z,9.20
2022-10-31T21:16:18.085Z,9.10
2022-10-31T21:18:47.058Z,9.30
2022-10-31T21:21:18.148Z,8.10
2022-10-31T21:23:47.025Z,8.90
2022-10-31T21:26:23.382Z,8.80
2022-10-31T21:28:53.955Z,9.90
2022-10-31T21:31:21.875Z,9.20
2022-10-31T21:33:50.083Z,9.70
2022-10-31T21:36:17.722Z,8.40
2022-10-31T21:38:50.080Z,7.70
2022-10-31T21:41:18.754Z,6.80
2022-10-31T21:43:48.192Z,9.50
2022-10-31T21:48:45.949Z,8.00
2022-10-31T21:51:22.304Z,8.60
2022-10-31T21:54:09.691Z,7.90
2022-10-31T21:56:37.917Z,9.30
2022-10-31T21:59:06.557Z,8.00
2022-10-31T22:01:35.820Z,8.00
2022-10-31T22:04:04.267Z,8.90
2022-10-31T22:06:32.237Z,9.00
2022-10-31T22:09:03.518Z,8.40
2022-10-31T22:11:31.571Z,7.60
2022-10-31T22:14:00.595Z,7.50
2022-10-31T22:16:30.307Z,8.10
2022-10-31T22:18:59.953Z,9.40
2022-10-31T22:21:28.743Z,10.00
2022-10-31T22:24:01.864Z,9.30
2022-10-31T22:26:33.186Z,8.80
2022-10-31T22:29:03.963Z,8.50
2022-10-31T22:31:33.615Z,8.60
2022-10-31T22:34:01.569Z,9.30
2022-10-31T22:36:30.851Z,9.50
2022-10-31T22:38:58.951Z,8.30
2022-10-31T22:41:30.727Z,7.60
2022-10-31T22:43:59.179Z,8.20
2022-10-31T22:46:29.921Z,7.30
2022-10-31T22:49:01.315Z,8.40
2022-10-31T22:51:38.259Z,8.30
2022-10-31T22:54:09.918Z,5.30
2022-10-31T22:56:38.329Z,6.40
2022-10-31T22:59:06.431Z,6.90
2022-10-31T23:01:35.011Z,7.00
2022-10-31T23:04:03.157Z,7.40
2022-10-31T23:06:32.699Z,6.80
2022-10-31T23:09:02.181Z,6.70
2022-10-31T23:11:33.279Z,8.60
2022-10-31T23:14:09.578Z,7.40
2022-10-31T23:16:40.303Z,7.70
2022-10-31T23:19:09.354Z,7.60
2022-10-31T23:21:57.521Z,7.50
2022-10-31T23:24:25.408Z,6.40
2022-10-31T23:27:07.704Z,7.40
2022-10-31T23:29:45.543Z,7.50
2022-10-31T23:32:19.158Z,6.50
2022-10-31T23:34:49.474Z,7.40
2022-10-31T23:37:19.326Z,6.90
2022-10-31T23:39:47.786Z,7.80
2022-10-31T23:42:16.027Z,7.80
2022-10-31T23:44:43.697Z,7.50
2022-10-31T23:47:11.908Z,7.50
2022-10-31T23:49:39.659Z,6.70
2022-10-31T23:52:07.975Z,7.70
2022-10-31T23:54:35.768Z,8.30
2022-10-31T23:57:04.025Z,7.90
2022-10-31T23:59:32.851Z,8.20
